sensor_id;sensor_type;location;lat;lon;timestamp;temperature;humidity
61386;DHT22;47256;18.904;-99.054;2022-12-18T00:02:28;23.50;75.10
61386;DHT22;47256;18.904;-99.054;2022-12-18T00:04:57;23.40;75.10
61386;DHT22;47256;18.904;-99.054;2022-12-18T00:07:24;23.40;75.50
61386;DHT22;47256;18.904;-99.054;2022-12-18T00:09:51;23.30;75.00
61386;DHT22;47256;18.904;-99.054;2022-12-18T00:12:18;23.30;75.20
61386;DHT22;47256;18.904;-99.054;2022-12-18T00:14:48;23.20;75.80
61386;DHT22;47256;18.904;-99.054;2022-12-18T00:17:17;23.20;76.10
61386;DHT22;47256;18.904;-99.054;2022-12-18T00:19:44;23.10;75.80
61386;DHT22;47256;18.904;-99.054;2022-12-18T00:22:12;23.00;75.50
61386;DHT22;47256;18.904;-99.054;2022-12-18T00:24:39;23.00;76.00
61386;DHT22;47256;18.904;-99.054;2022-12-18T00:27:07;22.90;75.70
61386;DHT22;47256;18.904;-99.054;2022-12-18T00:29:39;22.90;75.80
61386;DHT22;47256;18.904;-99.054;2022-12-18T00:32:06;22.90;75.70
61386;DHT22;47256;18.904;-99.054;2022-12-18T00:34:34;22.80;75.50
61386;DHT22;47256;18.904;-99.054;2022-12-18T00:37:02;22.70;75.70
61386;DHT22;47256;18.904;-99.054;2022-12-18T00:39:29;22.70;76.60
61386;DHT22;47256;18.904;-99.054;2022-12-18T00:41:59;22.70;76.70
61386;DHT22;47256;18.904;-99.054;2022-12-18T00:44:44;22.60;76.90
61386;DHT22;47256;18.904;-99.054;2022-12-18T00:47:12;22.50;77.40
61386;DHT22;47256;18.904;-99.054;2022-12-18T00:49:41;22.30;78.80
61386;DHT22;47256;18.904;-99.054;2022-12-18T00:52:09;22.20;78.10
61386;DHT22;47256;18.904;-99.054;2022-12-18T00:54:37;22.10;77.90
61386;DHT22;47256;18.904;-99.054;2022-12-18T00:57:04;22.00;77.70
61386;DHT22;47256;18.904;-99.054;2022-12-18T00:59:32;22.00;78.20
61386;DHT22;47256;18.904;-99.054;2022-12-18T01:01:59;22.10;78.50
61386;DHT22;47256;18.904;-99.054;2022-12-18T01:04:26;22.10;76.90
61386;DHT22;47256;18.904;-99.054;2022-12-18T01:06:53;22.10;77.20
61386;DHT22;47256;18.904;-99.054;2022-12-18T01:09:21;22.10;77.40
61386;DHT22;47256;18.904;-99.054;2022-12-18T01:11:48;22.10;77.10
61386;DHT22;47256;18.904;-99.054;2022-12-18T01:14:18;22.10;77.00
61386;DHT22;47256;18.904;-99.054;2022-12-18T01:16:45;22.10;76.90
61386;DHT22;47256;18.904;-99.054;2022-12-18T01:19:13;22.10;77.10
61386;DHT22;47256;18.904;-99.054;2022-12-18T01:21:41;22.10;78.70
61386;DHT22;47256;18.904;-99.054;2022-12-18T01:24:11;21.90;79.60
61386;DHT22;47256;18.904;-99.054;2022-12-18T01:26:38;21.80;79.30
61386;DHT22;47256;18.904;-99.054;2022-12-18T01:29:07;21.80;79.00
61386;DHT22;47256;18.904;-99.054;2022-12-18T01:31:34;21.80;79.70
61386;DHT22;47256;18.904;-99.054;2022-12-18T01:34:04;21.80;79.40
61386;DHT22;47256;18.904;-99.054;2022-12-18T01:36:34;21.80;79.40
61386;DHT22;47256;18.904;-99.054;2022-12-18T01:39:07;21.80;78.50
61386;DHT22;47256;18.904;-99.054;2022-12-18T01:41:37;21.80;78.30
61386;DHT22;47256;18.904;-99.054;2022-12-18T01:47:41;21.60;80.30
61386;DHT22;47256;18.904;-99.054;2022-12-18T01:50:22;21.50;79.50
61386;DHT22;47256;18.904;-99.054;2022-12-18T01:53:00;21.60;79.80
61386;DHT22;47256;18.904;-99.054;2022-12-18T01:55:35;21.60;79.60
61386;DHT22;47256;18.904;-99.054;2022-12-18T01:58:04;21.50;80.90
61386;DHT22;47256;18.904;-99.054;2022-12-18T02:00:32;21.50;81.00
61386;DHT22;47256;18.904;-99.054;2022-12-18T02:02:59;21.40;81.00
61386;DHT22;47256;18.904;-99.054;2022-12-18T02:08:42;21.40;81.80
61386;DHT22;47256;18.904;-99.054;2022-12-18T02:11:24;21.30;81.70
61386;DHT22;47256;18.904;-99.054;2022-12-18T02:17:10;21.10;81.50
61386;DHT22;47256;18.904;-99.054;2022-12-18T02:28:30;20.90;83.40
61386;DHT22;47256;18.904;-99.054;2022-12-18T02:31:07;20.80;82.00
61386;DHT22;47256;18.904;-99.054;2022-12-18T02:33:38;20.80;82.70
61386;DHT22;47256;18.904;-99.054;2022-12-18T02:36:08;20.80;81.00
61386;DHT22;47256;18.904;-99.054;2022-12-18T02:38:37;20.80;80.50
61386;DHT22;47256;18.904;-99.054;2022-12-18T02:41:12;20.80;80.30
61386;DHT22;47256;18.904;-99.054;2022-12-18T02:43:49;20.80;81.40
61386;DHT22;47256;18.904;-99.054;2022-12-18T02:46:32;20.80;80.50
61386;DHT22;47256;18.904;-99.054;2022-12-18T02:55:19;20.70;81.60
61386;DHT22;47256;18.904;-99.054;2022-12-18T02:58:17;20.60;81.40
61386;DHT22;47256;18.904;-99.054;2022-12-18T03:01:01;20.60;81.40
61386;DHT22;47256;18.904;-99.054;2022-12-18T03:03:39;20.50;81.30
61386;DHT22;47256;18.904;-99.054;2022-12-18T03:06:32;20.40;81.60
61386;DHT22;47256;18.904;-99.054;2022-12-18T03:09:14;20.40;81.30
61386;DHT22;47256;18.904;-99.054;2022-12-18T03:11:47;20.40;82.20
61386;DHT22;47256;18.904;-99.054;2022-12-18T03:18:36;20.20;83.70
61386;DHT22;47256;18.904;-99.054;2022-12-18T03:21:06;20.00;82.20
61386;DHT22;47256;18.904;-99.054;2022-12-18T03:23:48;19.90;83.80
61386;DHT22;47256;18.904;-99.054;2022-12-18T03:26:21;19.90;83.60
61386;DHT22;47256;18.904;-99.054;2022-12-18T03:29:03;19.80;82.90
61386;DHT22;47256;18.904;-99.054;2022-12-18T03:31:37;19.90;83.50
61386;DHT22;47256;18.904;-99.054;2022-12-18T03:34:15;19.90;83.40
61386;DHT22;47256;18.904;-99.054;2022-12-18T03:36:46;20.00;83.50
61386;DHT22;47256;18.904;-99.054;2022-12-18T03:39:14;20.00;83.00
61386;DHT22;47256;18.904;-99.054;2022-12-18T03:44:49;19.80;84.60
61386;DHT22;47256;18.904;-99.054;2022-12-18T03:53:00;19.70;82.60
61386;DHT22;47256;18.904;-99.054;2022-12-18T03:55:36;19.70;81.80
61386;DHT22;47256;18.904;-99.054;2022-12-18T03:58:07;19.60;81.90
61386;DHT22;47256;18.904;-99.054;2022-12-18T04:01:00;19.70;82.20
61386;DHT22;47256;18.904;-99.054;2022-12-18T04:03:33;19.60;81.80
61386;DHT22;47256;18.904;-99.054;2022-12-18T04:06:05;19.70;82.50
61386;DHT22;47256;18.904;-99.054;2022-12-18T04:08:35;19.70;82.00
61386;DHT22;47256;18.904;-99.054;2022-12-18T04:11:06;19.60;82.10
61386;DHT22;47256;18.904;-99.054;2022-12-18T04:13:38;19.60;82.90
61386;DHT22;47256;18.904;-99.054;2022-12-18T04:16:16;19.50;82.80
61386;DHT22;47256;18.904;-99.054;2022-12-18T04:18:48;19.40;83.80
61386;DHT22;47256;18.904;-99.054;2022-12-18T04:21:16;19.30;84.40
61386;DHT22;47256;18.904;-99.054;2022-12-18T04:23:44;19.20;84.40
61386;DHT22;47256;18.904;-99.054;2022-12-18T04:26:14;19.20;84.70
61386;DHT22;47256;18.904;-99.054;2022-12-18T04:29:04;19.30;84.90
61386;DHT22;47256;18.904;-99.054;2022-12-18T04:31:33;19.20;85.30
61386;DHT22;47256;18.904;-99.054;2022-12-18T04:34:00;19.20;84.70
61386;DHT22;47256;18.904;-99.054;2022-12-18T04:36:29;19.20;84.50
61386;DHT22;47256;18.904;-99.054;2022-12-18T04:38:57;19.30;84.40
61386;DHT22;47256;18.904;-99.054;2022-12-18T04:41:27;19.30;84.10
61386;DHT22;47256;18.904;-99.054;2022-12-18T04:43:54;19.40;84.20
61386;DHT22;47256;18.904;-99.054;2022-12-18T04:46:25;19.40;84.40
61386;DHT22;47256;18.904;-99.054;2022-12-18T04:48:53;19.40;84.50
61386;DHT22;47256;18.904;-99.054;2022-12-18T04:51:20;19.40;85.30
61386;DHT22;47256;18.904;-99.054;2022-12-18T04:53:49;19.30;85.50
61386;DHT22;47256;18.904;-99.054;2022-12-18T04:56:17;19.20;86.00
61386;DHT22;47256;18.904;-99.054;2022-12-18T04:58:45;19.20;86.30
61386;DHT22;47256;18.904;-99.054;2022-12-18T05:01:15;19.20;86.40
61386;DHT22;47256;18.904;-99.054;2022-12-18T05:03:43;19.20;86.40
61386;DHT22;47256;18.904;-99.054;2022-12-18T05:06:11;19.10;86.60
61386;DHT22;47256;18.904;-99.054;2022-12-18T05:08:39;19.10;86.50
61386;DHT22;47256;18.904;-99.054;2022-12-18T05:11:09;19.10;87.50
61386;DHT22;47256;18.904;-99.054;2022-12-18T05:13:40;19.10;86.90
61386;DHT22;47256;18.904;-99.054;2022-12-18T05:16:14;19.10;87.20
61386;DHT22;47256;18.904;-99.054;2022-12-18T05:18:43;19.00;87.20
61386;DHT22;47256;18.904;-99.054;2022-12-18T05:21:10;19.00;87.60
61386;DHT22;47256;18.904;-99.054;2022-12-18T05:23:39;19.00;87.30
61386;DHT22;47256;18.904;-99.054;2022-12-18T05:26:07;19.10;87.40
61386;DHT22;47256;18.904;-99.054;2022-12-18T05:28:36;19.10;87.30
61386;DHT22;47256;18.904;-99.054;2022-12-18T05:31:04;19.10;87.20
61386;DHT22;47256;18.904;-99.054;2022-12-18T05:33:35;19.00;87.10
61386;DHT22;47256;18.904;-99.054;2022-12-18T05:36:04;19.00;87.30
61386;DHT22;47256;18.904;-99.054;2022-12-18T05:38:34;19.00;87.20
61386;DHT22;47256;18.904;-99.054;2022-12-18T05:41:01;18.90;87.20
61386;DHT22;47256;18.904;-99.054;2022-12-18T05:43:30;18.80;87.40
61386;DHT22;47256;18.904;-99.054;2022-12-18T05:45:57;18.80;87.30
61386;DHT22;47256;18.904;-99.054;2022-12-18T05:48:24;18.80;87.80
61386;DHT22;47256;18.904;-99.054;2022-12-18T05:50:52;18.60;88.00
61386;DHT22;47256;18.904;-99.054;2022-12-18T05:53:21;18.40;88.30
61386;DHT22;47256;18.904;-99.054;2022-12-18T05:55:48;18.40;88.50
61386;DHT22;47256;18.904;-99.054;2022-12-18T05:58:17;18.30;88.00
61386;DHT22;47256;18.904;-99.054;2022-12-18T06:00:45;18.30;88.20
61386;DHT22;47256;18.904;-99.054;2022-12-18T06:03:15;18.30;87.90
61386;DHT22;47256;18.904;-99.054;2022-12-18T06:05:44;18.30;88.20
61386;DHT22;47256;18.904;-99.054;2022-12-18T06:08:13;18.30;88.40
61386;DHT22;47256;18.904;-99.054;2022-12-18T06:10:50;18.30;88.70
61386;DHT22;47256;18.904;-99.054;2022-12-18T06:13:20;18.30;89.00
61386;DHT22;47256;18.904;-99.054;2022-12-18T06:15:47;18.30;89.20
61386;DHT22;47256;18.904;-99.054;2022-12-18T06:18:21;18.30;89.00
61386;DHT22;47256;18.904;-99.054;2022-12-18T06:20:57;18.30;88.60
61386;DHT22;47256;18.904;-99.054;2022-12-18T06:23:28;18.30;88.60
61386;DHT22;47256;18.904;-99.054;2022-12-18T06:25:55;18.30;88.60
61386;DHT22;47256;18.904;-99.054;2022-12-18T06:28:26;18.20;88.90
61386;DHT22;47256;18.904;-99.054;2022-12-18T06:30:53;18.10;88.50
61386;DHT22;47256;18.904;-99.054;2022-12-18T06:33:20;18.20;88.40
61386;DHT22;47256;18.904;-99.054;2022-12-18T06:35:47;18.10;87.90
61386;DHT22;47256;18.904;-99.054;2022-12-18T06:38:16;18.10;88.10
61386;DHT22;47256;18.904;-99.054;2022-12-18T06:40:43;18.10;88.60
61386;DHT22;47256;18.904;-99.054;2022-12-18T06:43:11;18.10;88.60
61386;DHT22;47256;18.904;-99.054;2022-12-18T06:45:39;18.20;88.40
61386;DHT22;47256;18.904;-99.054;2022-12-18T06:48:07;18.20;88.40
61386;DHT22;47256;18.904;-99.054;2022-12-18T06:50:34;18.20;87.70
61386;DHT22;47256;18.904;-99.054;2022-12-18T06:53:03;18.20;88.50
61386;DHT22;47256;18.904;-99.054;2022-12-18T06:55:30;18.10;88.40
61386;DHT22;47256;18.904;-99.054;2022-12-18T06:57:58;18.00;88.50
61386;DHT22;47256;18.904;-99.054;2022-12-18T07:00:25;17.90;88.60
61386;DHT22;47256;18.904;-99.054;2022-12-18T07:02:54;17.90;88.70
61386;DHT22;47256;18.904;-99.054;2022-12-18T07:05:22;17.80;89.20
61386;DHT22;47256;18.904;-99.054;2022-12-18T07:07:49;17.70;89.20
61386;DHT22;47256;18.904;-99.054;2022-12-18T07:10:18;17.70;89.10
61386;DHT22;47256;18.904;-99.054;2022-12-18T07:12:46;17.80;89.10
61386;DHT22;47256;18.904;-99.054;2022-12-18T07:15:13;17.80;89.00
61386;DHT22;47256;18.904;-99.054;2022-12-18T07:17:47;17.80;89.10
61386;DHT22;47256;18.904;-99.054;2022-12-18T07:20:14;17.80;89.00
61386;DHT22;47256;18.904;-99.054;2022-12-18T07:22:41;17.80;89.10
61386;DHT22;47256;18.904;-99.054;2022-12-18T07:25:08;17.70;89.00
61386;DHT22;47256;18.904;-99.054;2022-12-18T07:27:35;17.70;89.20
61386;DHT22;47256;18.904;-99.054;2022-12-18T07:30:05;17.70;89.30
61386;DHT22;47256;18.904;-99.054;2022-12-18T07:32:32;17.70;89.20
61386;DHT22;47256;18.904;-99.054;2022-12-18T07:35:00;17.70;89.10
61386;DHT22;47256;18.904;-99.054;2022-12-18T07:37:28;17.70;88.90
61386;DHT22;47256;18.904;-99.054;2022-12-18T07:39:55;17.70;89.30
61386;DHT22;47256;18.904;-99.054;2022-12-18T07:42:24;17.80;89.10
61386;DHT22;47256;18.904;-99.054;2022-12-18T07:44:58;17.80;88.80
61386;DHT22;47256;18.904;-99.054;2022-12-18T07:47:27;17.70;88.50
61386;DHT22;47256;18.904;-99.054;2022-12-18T07:49:55;17.50;89.20
61386;DHT22;47256;18.904;-99.054;2022-12-18T07:52:22;17.40;89.40
61386;DHT22;47256;18.904;-99.054;2022-12-18T07:54:52;17.30;90.10
61386;DHT22;47256;18.904;-99.054;2022-12-18T07:57:20;17.30;90.10
61386;DHT22;47256;18.904;-99.054;2022-12-18T07:59:47;17.40;90.00
61386;DHT22;47256;18.904;-99.054;2022-12-18T08:02:15;17.40;90.00
61386;DHT22;47256;18.904;-99.054;2022-12-18T08:04:43;17.30;90.00
61386;DHT22;47256;18.904;-99.054;2022-12-18T08:07:11;17.30;90.10
61386;DHT22;47256;18.904;-99.054;2022-12-18T08:09:38;17.40;90.10
61386;DHT22;47256;18.904;-99.054;2022-12-18T08:12:06;17.40;89.90
61386;DHT22;47256;18.904;-99.054;2022-12-18T08:14:34;17.30;90.10
61386;DHT22;47256;18.904;-99.054;2022-12-18T08:17:04;17.30;90.30
61386;DHT22;47256;18.904;-99.054;2022-12-18T08:19:32;17.30;90.30
61386;DHT22;47256;18.904;-99.054;2022-12-18T08:21:59;17.20;90.40
61386;DHT22;47256;18.904;-99.054;2022-12-18T08:24:27;17.20;90.50
61386;DHT22;47256;18.904;-99.054;2022-12-18T08:26:54;17.20;90.40
61386;DHT22;47256;18.904;-99.054;2022-12-18T08:29:23;17.20;90.40
61386;DHT22;47256;18.904;-99.054;2022-12-18T08:31:50;17.10;90.70
61386;DHT22;47256;18.904;-99.054;2022-12-18T08:34:18;17.00;90.40
61386;DHT22;47256;18.904;-99.054;2022-12-18T08:36:45;17.00;90.30
61386;DHT22;47256;18.904;-99.054;2022-12-18T08:39:13;17.00;90.80
61386;DHT22;47256;18.904;-99.054;2022-12-18T08:41:40;16.90;90.30
61386;DHT22;47256;18.904;-99.054;2022-12-18T08:44:08;16.90;90.40
61386;DHT22;47256;18.904;-99.054;2022-12-18T08:46:56;16.80;90.00
61386;DHT22;47256;18.904;-99.054;2022-12-18T08:49:23;16.80;90.20
61386;DHT22;47256;18.904;-99.054;2022-12-18T08:51:55;16.80;90.50
61386;DHT22;47256;18.904;-99.054;2022-12-18T08:54:24;16.70;90.50
61386;DHT22;47256;18.904;-99.054;2022-12-18T08:56:52;16.60;90.70
61386;DHT22;47256;18.904;-99.054;2022-12-18T08:59:20;16.60;90.80
61386;DHT22;47256;18.904;-99.054;2022-12-18T09:01:47;16.70;90.70
61386;DHT22;47256;18.904;-99.054;2022-12-18T09:04:14;16.70;90.50
61386;DHT22;47256;18.904;-99.054;2022-12-18T09:06:42;16.70;90.60
61386;DHT22;47256;18.904;-99.054;2022-12-18T09:09:12;16.70;90.40
61386;DHT22;47256;18.904;-99.054;2022-12-18T09:11:40;16.60;90.50
61386;DHT22;47256;18.904;-99.054;2022-12-18T09:14:09;16.60;90.50
61386;DHT22;47256;18.904;-99.054;2022-12-18T09:16:44;16.60;90.60
61386;DHT22;47256;18.904;-99.054;2022-12-18T09:19:13;16.60;90.70
61386;DHT22;47256;18.904;-99.054;2022-12-18T09:21:42;16.60;90.70
61386;DHT22;47256;18.904;-99.054;2022-12-18T09:24:12;16.70;90.60
61386;DHT22;47256;18.904;-99.054;2022-12-18T09:26:42;16.70;90.50
61386;DHT22;47256;18.904;-99.054;2022-12-18T09:29:09;16.70;90.60
61386;DHT22;47256;18.904;-99.054;2022-12-18T09:31:38;16.60;90.50
61386;DHT22;47256;18.904;-99.054;2022-12-18T09:34:06;16.70;90.30
61386;DHT22;47256;18.904;-99.054;2022-12-18T09:36:34;16.70;90.20
61386;DHT22;47256;18.904;-99.054;2022-12-18T09:39:02;16.70;90.10
61386;DHT22;47256;18.904;-99.054;2022-12-18T09:41:44;16.70;90.30
61386;DHT22;47256;18.904;-99.054;2022-12-18T09:44:54;16.70;90.40
61386;DHT22;47256;18.904;-99.054;2022-12-18T09:47:10;16.70;90.50
61386;DHT22;47256;18.904;-99.054;2022-12-18T09:49:42;16.70;90.60
61386;DHT22;47256;18.904;-99.054;2022-12-18T09:52:19;16.70;90.80
61386;DHT22;47256;18.904;-99.054;2022-12-18T09:54:55;16.70;90.70
61386;DHT22;47256;18.904;-99.054;2022-12-18T09:57:29;16.70;90.60
61386;DHT22;47256;18.904;-99.054;2022-12-18T10:00:19;16.70;90.70
61386;DHT22;47256;18.904;-99.054;2022-12-18T10:02:47;16.70;90.70
61386;DHT22;47256;18.904;-99.054;2022-12-18T10:05:54;16.70;90.70
61386;DHT22;47256;18.904;-99.054;2022-12-18T10:14:27;16.60;91.40
61386;DHT22;47256;18.904;-99.054;2022-12-18T10:17:18;16.60;91.20
61386;DHT22;47256;18.904;-99.054;2022-12-18T10:20:02;16.60;91.30
61386;DHT22;47256;18.904;-99.054;2022-12-18T10:27:47;16.50;91.50
61386;DHT22;47256;18.904;-99.054;2022-12-18T10:30:19;16.50;91.30
61386;DHT22;47256;18.904;-99.054;2022-12-18T10:32:50;16.60;91.20
61386;DHT22;47256;18.904;-99.054;2022-12-18T10:35:20;16.60;91.10
61386;DHT22;47256;18.904;-99.054;2022-12-18T10:38:06;16.50;91.40
61386;DHT22;47256;18.904;-99.054;2022-12-18T10:41:08;16.50;91.70
61386;DHT22;47256;18.904;-99.054;2022-12-18T10:44:18;16.50;91.50
61386;DHT22;47256;18.904;-99.054;2022-12-18T10:46:50;16.50;91.30
61386;DHT22;47256;18.904;-99.054;2022-12-18T10:49:27;16.40;91.40
61386;DHT22;47256;18.904;-99.054;2022-12-18T10:52:25;16.40;91.50
61386;DHT22;47256;18.904;-99.054;2022-12-18T10:54:59;16.40;91.80
61386;DHT22;47256;18.904;-99.054;2022-12-18T10:57:33;16.40;91.90
61386;DHT22;47256;18.904;-99.054;2022-12-18T11:00:21;16.40;91.70
61386;DHT22;47256;18.904;-99.054;2022-12-18T11:02:50;16.40;91.70
61386;DHT22;47256;18.904;-99.054;2022-12-18T11:05:30;16.40;91.70
61386;DHT22;47256;18.904;-99.054;2022-12-18T11:07:59;16.30;91.30
61386;DHT22;47256;18.904;-99.054;2022-12-18T11:10:33;16.20;91.80
61386;DHT22;47256;18.904;-99.054;2022-12-18T11:13:30;16.20;91.60
61386;DHT22;47256;18.904;-99.054;2022-12-18T11:16:24;16.10;92.10
61386;DHT22;47256;18.904;-99.054;2022-12-18T11:18:52;16.10;91.90
61386;DHT22;47256;18.904;-99.054;2022-12-18T11:21:20;16.20;91.60
61386;DHT22;47256;18.904;-99.054;2022-12-18T11:23:50;16.10;91.70
61386;DHT22;47256;18.904;-99.054;2022-12-18T11:26:18;16.10;92.00
61386;DHT22;47256;18.904;-99.054;2022-12-18T11:28:52;16.00;92.10
61386;DHT22;47256;18.904;-99.054;2022-12-18T11:31:35;16.10;91.80
61386;DHT22;47256;18.904;-99.054;2022-12-18T11:34:37;16.10;91.90
61386;DHT22;47256;18.904;-99.054;2022-12-18T11:37:07;16.00;91.70
61386;DHT22;47256;18.904;-99.054;2022-12-18T11:39:57;15.90;91.80
61386;DHT22;47256;18.904;-99.054;2022-12-18T11:43:21;15.90;92.20
61386;DHT22;47256;18.904;-99.054;2022-12-18T11:46:04;16.00;91.90
61386;DHT22;47256;18.904;-99.054;2022-12-18T11:49:07;16.00;91.90
61386;DHT22;47256;18.904;-99.054;2022-12-18T11:51:47;15.90;91.90
61386;DHT22;47256;18.904;-99.054;2022-12-18T11:54:19;15.90;91.60
61386;DHT22;47256;18.904;-99.054;2022-12-18T11:57:03;15.70;92.00
61386;DHT22;47256;18.904;-99.054;2022-12-18T11:59:55;15.60;92.50
61386;DHT22;47256;18.904;-99.054;2022-12-18T12:14:08;15.80;92.20
61386;DHT22;47256;18.904;-99.054;2022-12-18T12:17:10;15.80;92.30
61386;DHT22;47256;18.904;-99.054;2022-12-18T12:31:30;15.50;92.00
61386;DHT22;47256;18.904;-99.054;2022-12-18T12:39:06;15.60;92.00
61386;DHT22;47256;18.904;-99.054;2022-12-18T12:41:39;15.60;91.80
61386;DHT22;47256;18.904;-99.054;2022-12-18T12:44:37;15.60;92.00
61386;DHT22;47256;18.904;-99.054;2022-12-18T12:47:27;15.60;92.00
61386;DHT22;47256;18.904;-99.054;2022-12-18T12:49:57;15.60;91.90
61386;DHT22;47256;18.904;-99.054;2022-12-18T12:52:32;15.60;91.90
61386;DHT22;47256;18.904;-99.054;2022-12-18T12:55:04;15.60;91.80
61386;DHT22;47256;18.904;-99.054;2022-12-18T12:57:37;15.60;91.90
61386;DHT22;47256;18.904;-99.054;2022-12-18T13:00:17;15.60;92.00
61386;DHT22;47256;18.904;-99.054;2022-12-18T13:05:45;15.50;92.30
61386;DHT22;47256;18.904;-99.054;2022-12-18T13:10:57;15.50;92.40
61386;DHT22;47256;18.904;-99.054;2022-12-18T13:13:54;15.50;92.60
61386;DHT22;47256;18.904;-99.054;2022-12-18T13:16:30;15.40;92.70
61386;DHT22;47256;18.904;-99.054;2022-12-18T13:19:01;15.40;92.80
61386;DHT22;47256;18.904;-99.054;2022-12-18T13:21:33;15.50;92.90
61386;DHT22;47256;18.904;-99.054;2022-12-18T13:24:22;15.50;93.00
61386;DHT22;47256;18.904;-99.054;2022-12-18T13:26:53;15.40;92.60
61386;DHT22;47256;18.904;-99.054;2022-12-18T13:29:40;15.50;93.20
61386;DHT22;47256;18.904;-99.054;2022-12-18T13:32:25;15.50;93.10
61386;DHT22;47256;18.904;-99.054;2022-12-18T13:37:56;15.60;93.30
61386;DHT22;47256;18.904;-99.054;2022-12-18T13:46:19;15.70;93.40
61386;DHT22;47256;18.904;-99.054;2022-12-18T13:51:54;15.80;93.20
61386;DHT22;47256;18.904;-99.054;2022-12-18T13:54:34;15.90;93.40
61386;DHT22;47256;18.904;-99.054;2022-12-18T13:57:12;15.90;93.40
61386;DHT22;47256;18.904;-99.054;2022-12-18T13:59:58;16.00;93.10
61386;DHT22;47256;18.904;-99.054;2022-12-18T14:02:28;16.00;93.20
61386;DHT22;47256;18.904;-99.054;2022-12-18T14:04:56;16.10;92.90
61386;DHT22;47256;18.904;-99.054;2022-12-18T14:07:26;16.30;93.40
61386;DHT22;47256;18.904;-99.054;2022-12-18T14:09:59;16.40;93.30
61386;DHT22;47256;18.904;-99.054;2022-12-18T14:12:33;16.50;93.00
61386;DHT22;47256;18.904;-99.054;2022-12-18T14:20:50;16.70;92.40
61386;DHT22;47256;18.904;-99.054;2022-12-18T14:26:17;17.00;93.40
61386;DHT22;47256;18.904;-99.054;2022-12-18T14:28:47;17.10;92.90
61386;DHT22;47256;18.904;-99.054;2022-12-18T14:31:23;17.20;92.60
61386;DHT22;47256;18.904;-99.054;2022-12-18T14:33:52;17.30;92.90
61386;DHT22;47256;18.904;-99.054;2022-12-18T14:36:26;17.40;92.40
61386;DHT22;47256;18.904;-99.054;2022-12-18T14:38:58;17.60;91.40
61386;DHT22;47256;18.904;-99.054;2022-12-18T14:41:26;17.80;90.80
61386;DHT22;47256;18.904;-99.054;2022-12-18T14:43:56;17.90;90.90
61386;DHT22;47256;18.904;-99.054;2022-12-18T14:49:02;18.20;92.60
61386;DHT22;47256;18.904;-99.054;2022-12-18T14:51:36;18.30;92.20
61386;DHT22;47256;18.904;-99.054;2022-12-18T14:54:06;18.50;91.10
61386;DHT22;47256;18.904;-99.054;2022-12-18T14:56:47;18.60;90.60
61386;DHT22;47256;18.904;-99.054;2022-12-18T14:59:24;18.80;91.20
61386;DHT22;47256;18.904;-99.054;2022-12-18T15:02:26;19.00;91.40
61386;DHT22;47256;18.904;-99.054;2022-12-18T15:05:27;19.20;89.60
61386;DHT22;47256;18.904;-99.054;2022-12-18T15:07:56;19.30;89.00
61386;DHT22;47256;18.904;-99.054;2022-12-18T15:10:33;19.40;87.90
61386;DHT22;47256;18.904;-99.054;2022-12-18T15:20:59;19.80;88.50
61386;DHT22;47256;18.904;-99.054;2022-12-18T15:26:15;20.00;88.10
61386;DHT22;47256;18.904;-99.054;2022-12-18T15:28:51;20.20;87.40
61386;DHT22;47256;18.904;-99.054;2022-12-18T15:31:37;20.30;87.50
61386;DHT22;47256;18.904;-99.054;2022-12-18T15:34:13;20.50;87.00
61386;DHT22;47256;18.904;-99.054;2022-12-18T15:36:43;20.70;87.30
61386;DHT22;47256;18.904;-99.054;2022-12-18T15:39:12;20.80;87.60
61386;DHT22;47256;18.904;-99.054;2022-12-18T15:41:42;21.10;88.10
61386;DHT22;47256;18.904;-99.054;2022-12-18T15:44:32;21.30;87.70
61386;DHT22;47256;18.904;-99.054;2022-12-18T15:47:00;21.50;84.60
61386;DHT22;47256;18.904;-99.054;2022-12-18T15:49:28;21.70;82.80
61386;DHT22;47256;18.904;-99.054;2022-12-18T15:51:59;21.90;83.70
61386;DHT22;47256;18.904;-99.054;2022-12-18T15:54:29;22.00;83.50
61386;DHT22;47256;18.904;-99.054;2022-12-18T15:57:14;22.10;82.90
61386;DHT22;47256;18.904;-99.054;2022-12-18T15:59:53;22.10;81.70
61386;DHT22;47256;18.904;-99.054;2022-12-18T16:02:27;22.20;81.40
61386;DHT22;47256;18.904;-99.054;2022-12-18T16:04:56;22.10;80.40
61386;DHT22;47256;18.904;-99.054;2022-12-18T16:07:24;22.20;82.10
61386;DHT22;47256;18.904;-99.054;2022-12-18T16:09:51;22.40;82.70
61386;DHT22;47256;18.904;-99.054;2022-12-18T16:12:21;22.50;80.80
61386;DHT22;47256;18.904;-99.054;2022-12-18T16:14:53;22.50;80.00
61386;DHT22;47256;18.904;-99.054;2022-12-18T16:17:20;22.50;80.30
61386;DHT22;47256;18.904;-99.054;2022-12-18T16:19:53;22.50;81.40
61386;DHT22;47256;18.904;-99.054;2022-12-18T16:22:26;22.60;80.40
61386;DHT22;47256;18.904;-99.054;2022-12-18T16:24:57;22.70;80.40
61386;DHT22;47256;18.904;-99.054;2022-12-18T16:27:25;22.80;79.30
61386;DHT22;47256;18.904;-99.054;2022-12-18T16:29:52;22.80;78.90
61386;DHT22;47256;18.904;-99.054;2022-12-18T16:32:21;23.00;79.50
61386;DHT22;47256;18.904;-99.054;2022-12-18T16:34:48;23.00;79.50
61386;DHT22;47256;18.904;-99.054;2022-12-18T16:37:17;23.00;75.00
61386;DHT22;47256;18.904;-99.054;2022-12-18T16:39:44;23.10;79.10
61386;DHT22;47256;18.904;-99.054;2022-12-18T16:42:18;23.20;78.80
61386;DHT22;47256;18.904;-99.054;2022-12-18T16:44:50;23.20;79.00
61386;DHT22;47256;18.904;-99.054;2022-12-18T16:47:23;23.40;77.30
61386;DHT22;47256;18.904;-99.054;2022-12-18T16:49:51;23.40;76.00
61386;DHT22;47256;18.904;-99.054;2022-12-18T16:52:25;23.50;77.00
61386;DHT22;47256;18.904;-99.054;2022-12-18T16:54:52;23.60;76.90
61386;DHT22;47256;18.904;-99.054;2022-12-18T16:57:20;23.70;76.40
61386;DHT22;47256;18.904;-99.054;2022-12-18T16:59:48;23.80;73.10
61386;DHT22;47256;18.904;-99.054;2022-12-18T17:02:20;23.90;74.50
61386;DHT22;47256;18.904;-99.054;2022-12-18T17:04:48;23.90;76.00
61386;DHT22;47256;18.904;-99.054;2022-12-18T17:07:15;24.00;76.10
61386;DHT22;47256;18.904;-99.054;2022-12-18T17:09:43;24.10;76.00
61386;DHT22;47256;18.904;-99.054;2022-12-18T17:12:10;24.20;75.70
61386;DHT22;47256;18.904;-99.054;2022-12-18T17:14:38;24.20;75.20
61386;DHT22;47256;18.904;-99.054;2022-12-18T17:17:06;24.10;73.90
61386;DHT22;47256;18.904;-99.054;2022-12-18T17:19:34;24.20;76.50
61386;DHT22;47256;18.904;-99.054;2022-12-18T17:22:01;24.20;74.70
61386;DHT22;47256;18.904;-99.054;2022-12-18T17:24:28;24.30;76.90
61386;DHT22;47256;18.904;-99.054;2022-12-18T17:26:55;24.50;76.40
61386;DHT22;47256;18.904;-99.054;2022-12-18T17:29:24;24.50;75.20
61386;DHT22;47256;18.904;-99.054;2022-12-18T17:31:51;24.40;73.50
61386;DHT22;47256;18.904;-99.054;2022-12-18T17:34:20;24.30;74.00